sensor_id;sensor_type;location;lat;lon;timestamp;pressure;altitude;pressure_sealevel;temperature;humidity
36828;BME280;22766;48.042;11.192;2023-06-14T00:00:45;94564.59;;;9.63;100.00
36828;BME280;22766;48.042;11.192;2023-06-14T00:03:12;94567.59;;;9.50;100.00
36828;BME280;22766;48.042;11.192;2023-06-14T00:05:44;94575.00;;;9.45;100.00
36828;BME280;22766;48.042;11.192;2023-06-14T00:08:13;94570.31;;;9.32;100.00
36828;BME280;22766;48.042;11.192;2023-06-14T00:10:41;94566.88;;;9.24;100.00
36828;BME280;22766;48.042;11.192;2023-06-14T00:13:09;94566.91;;;9.32;100.00
36828;BME280;22766;48.042;11.192;2023-06-14T00:15:37;94570.31;;;9.40;100.00
36828;BME280;22766;48.042;11.192;2023-06-14T00:18:04;94567.25;;;9.37;100.00
36828;BME280;22766;48.042;11.192;2023-06-14T00:20:32;94565.41;;;9.21;100.00
36828;BME280;22766;48.042;11.192;2023-06-14T00:23:00;94564.75;;;9.19;100.00
36828;BME280;22766;48.042;11.192;2023-06-14T00:25:27;94566.06;;;9.23;100.00
36828;BME280;22766;48.042;11.192;2023-06-14T00:27:56;94562.53;;;9.24;100.00
36828;BME280;22766;48.042;11.192;2023-06-14T00:30:24;94558.97;;;9.17;100.00
36828;BME280;22766;48.042;11.192;2023-06-14T00:32:51;94552.53;;;9.21;100.00
36828;BME280;22766;48.042;11.192;2023-06-14T00:35:21;94561.38;;;9.19;100.00
36828;BME280;22766;48.042;11.192;2023-06-14T00:37:48;94556.41;;;9.17;100.00
36828;BME280;22766;48.042;11.192;2023-06-14T00:40:15;94560.53;;;9.10;100.00
36828;BME280;22766;48.042;11.192;2023-06-14T00:42:44;94557.34;;;9.16;100.00
36828;BME280;22766;48.042;11.192;2023-06-14T00:45:11;94558.09;;;9.09;100.00
36828;BME280;22766;48.042;11.192;2023-06-14T00:47:38;94555.69;;;9.07;100.00
36828;BME280;22766;48.042;11.192;2023-06-14T00:50:09;94554.53;;;9.02;100.00
36828;BME280;22766;48.042;11.192;2023-06-14T00:52:36;94557.28;;;9.00;100.00
36828;BME280;22766;48.042;11.192;2023-06-14T00:55:03;94559.97;;;8.91;100.00
36828;BME280;22766;48.042;11.192;2023-06-14T00:57:30;94555.75;;;8.90;100.00
36828;BME280;22766;48.042;11.192;2023-06-14T00:59:56;94560.47;;;8.94;100.00
36828;BME280;22766;48.042;11.192;2023-06-14T01:02:23;94558.53;;;8.96;100.00
36828;BME280;22766;48.042;11.192;2023-06-14T01:04:51;94557.56;;;8.97;100.00
36828;BME280;22766;48.042;11.192;2023-06-14T01:07:21;94554.19;;;8.97;100.00
36828;BME280;22766;48.042;11.192;2023-06-14T01:13:11;94556.97;;;9.03;100.00
36828;BME280;22766;48.042;11.192;2023-06-14T01:15:43;94561.06;;;8.88;100.00
36828;BME280;22766;48.042;11.192;2023-06-14T01:18:10;94561.44;;;8.76;100.00
36828;BME280;22766;48.042;11.192;2023-06-14T01:20:45;94557.22;;;8.67;100.00
36828;BME280;22766;48.042;11.192;2023-06-14T01:23:20;94555.63;;;8.66;100.00
36828;BME280;22766;48.042;11.192;2023-06-14T01:25:48;94551.59;;;8.45;100.00
36828;BME280;22766;48.042;11.192;2023-06-14T01:28:20;94554.19;;;8.45;100.00
36828;BME280;22766;48.042;11.192;2023-06-14T01:30:50;94556.41;;;8.40;100.00
36828;BME280;22766;48.042;11.192;2023-06-14T01:33:22;94558.25;;;8.30;100.00
36828;BME280;22766;48.042;11.192;2023-06-14T01:35:51;94561.19;;;8.18;100.00
36828;BME280;22766;48.042;11.192;2023-06-14T01:38:24;94558.19;;;8.22;100.00
36828;BME280;22766;48.042;11.192;2023-06-14T01:40:53;94562.59;;;8.30;100.00
36828;BME280;22766;48.042;11.192;2023-06-14T01:43:21;94560.22;;;8.36;100.00
36828;BME280;22766;48.042;11.192;2023-06-14T01:45:48;94554.94;;;8.38;100.00
36828;BME280;22766;48.042;11.192;2023-06-14T01:48:17;94551.75;;;8.44;100.00
36828;BME280;22766;48.042;11.192;2023-06-14T01:50:45;94548.75;;;8.48;100.00
36828;BME280;22766;48.042;11.192;2023-06-14T01:53:12;94544.19;;;8.42;100.00
36828;BME280;22766;48.042;11.192;2023-06-14T01:55:38;94554.75;;;8.31;100.00
36828;BME280;22766;48.042;11.192;2023-06-14T01:58:10;94553.63;;;8.16;100.00
36828;BME280;22766;48.042;11.192;2023-06-14T02:00:37;94559.28;;;8.02;100.00
36828;BME280;22766;48.042;11.192;2023-06-14T02:03:04;94555.22;;;8.00;100.00
36828;BME280;22766;48.042;11.192;2023-06-14T02:05:31;94554.78;;;8.04;100.00
36828;BME280;22766;48.042;11.192;2023-06-14T02:07:58;94552.38;;;8.20;100.00
36828;BME280;22766;48.042;11.192;2023-06-14T02:10:24;94555.53;;;8.14;100.00
36828;BME280;22766;48.042;11.192;2023-06-14T02:12:53;94546.22;;;7.96;100.00
36828;BME280;22766;48.042;11.192;2023-06-14T02:15:20;94553.19;;;7.86;100.00
36828;BME280;22766;48.042;11.192;2023-06-14T02:17:48;94548.03;;;7.86;100.00
36828;BME280;22766;48.042;11.192;2023-06-14T02:20:18;94550.63;;;7.86;100.00
36828;BME280;22766;48.042;11.192;2023-06-14T02:22:45;94550.03;;;7.92;100.00
36828;BME280;22766;48.042;11.192;2023-06-14T02:25:12;94553.25;;;7.94;100.00
36828;BME280;22766;48.042;11.192;2023-06-14T02:27:40;94548.19;;;7.84;100.00
36828;BME280;22766;48.042;11.192;2023-06-14T02:30:07;94546.63;;;7.74;100.00
36828;BME280;22766;48.042;11.192;2023-06-14T02:32:34;94548.03;;;7.68;100.00
36828;BME280;22766;48.042;11.192;2023-06-14T02:35:04;94551.69;;;7.66;100.00
36828;BME280;22766;48.042;11.192;2023-06-14T02:37:31;94553.16;;;7.68;100.00
36828;BME280;22766;48.042;11.192;2023-06-14T02:39:58;94556.16;;;7.64;100.00
36828;BME280;22766;48.042;11.192;2023-06-14T02:42:25;94560.22;;;7.66;100.00
36828;BME280;22766;48.042;11.192;2023-06-14T02:44:51;94549.13;;;7.66;100.00
36828;BME280;22766;48.042;11.192;2023-06-14T02:47:20;94547.88;;;7.52;100.00
36828;BME280;22766;48.042;11.192;2023-06-14T02:49:46;94555.59;;;7.52;100.00
36828;BME280;22766;48.042;11.192;2023-06-14T02:52:14;94548.16;;;7.49;100.00
36828;BME280;22766;48.042;11.192;2023-06-14T02:54:41;94553.34;;;7.39;100.00
36828;BME280;22766;48.042;11.192;2023-06-14T02:57:09;94550.56;;;7.33;100.00
36828;BME280;22766;48.042;11.192;2023-06-14T02:59:38;94557.03;;;7.37;100.00
36828;BME280;22766;48.042;11.192;2023-06-14T03:02:05;94557.28;;;7.34;100.00
36828;BME280;22766;48.042;11.192;2023-06-14T03:04:33;94559.44;;;7.38;100.00
36828;BME280;22766;48.042;11.192;2023-06-14T03:07:08;94565.09;;;7.42;100.00
36828;BME280;22766;48.042;11.192;2023-06-14T03:09:39;94565.31;;;7.48;100.00
36828;BME280;22766;48.042;11.192;2023-06-14T03:12:08;94567.75;;;7.50;100.00
36828;BME280;22766;48.042;11.192;2023-06-14T03:14:36;94563.47;;;7.41;100.00
36828;BME280;22766;48.042;11.192;2023-06-14T03:17:05;94561.25;;;7.28;100.00
36828;BME280;22766;48.042;11.192;2023-06-14T03:19:34;94559.91;;;7.24;100.00
36828;BME280;22766;48.042;11.192;2023-06-14T03:22:02;94561.25;;;7.28;100.00
36828;BME280;22766;48.042;11.192;2023-06-14T03:24:31;94567.28;;;7.37;100.00
36828;BME280;22766;48.042;11.192;2023-06-14T03:27:09;94566.84;;;7.41;100.00
36828;BME280;22766;48.042;11.192;2023-06-14T03:29:40;94566.69;;;7.25;100.00
36828;BME280;22766;48.042;11.192;2023-06-14T03:32:07;94569.34;;;7.24;100.00
36828;BME280;22766;48.042;11.192;2023-06-14T03:34:40;94572.06;;;7.22;100.00
36828;BME280;22766;48.042;11.192;2023-06-14T03:37:14;94568.94;;;7.28;100.00
36828;BME280;22766;48.042;11.192;2023-06-14T03:39:41;94570.66;;;7.37;100.00
36828;BME280;22766;48.042;11.192;2023-06-14T03:42:18;94571.00;;;7.25;100.00
36828;BME280;22766;48.042;11.192;2023-06-14T03:44:46;94575.09;;;7.18;100.00
36828;BME280;22766;48.042;11.192;2023-06-14T03:47:13;94573.47;;;7.17;100.00
36828;BME280;22766;48.042;11.192;2023-06-14T03:49:40;94583.06;;;7.15;100.00
36828;BME280;22766;48.042;11.192;2023-06-14T03:52:07;94579.25;;;7.19;100.00
36828;BME280;22766;48.042;11.192;2023-06-14T03:54:36;94584.50;;;7.27;100.00
36828;BME280;22766;48.042;11.192;2023-06-14T03:57:06;94583.50;;;7.37;100.00
36828;BME280;22766;48.042;11.192;2023-06-14T03:59:33;94590.31;;;7.46;100.00
36828;BME280;22766;48.042;11.192;2023-06-14T04:02:01;94593.97;;;7.53;100.00
36828;BME280;22766;48.042;11.192;2023-06-14T04:04:28;94597.56;;;7.61;100.00
36828;BME280;22766;48.042;11.192;2023-06-14T04:06:57;94598.59;;;7.68;100.00
36828;BME280;22766;48.042;11.192;2023-06-14T04:09:25;94599.94;;;7.72;100.00
36828;BME280;22766;48.042;11.192;2023-06-14T04:11:52;94595.97;;;7.77;100.00
36828;BME280;22766;48.042;11.192;2023-06-14T04:14:19;94603.75;;;7.85;100.00
36828;BME280;22766;48.042;11.192;2023-06-14T04:16:47;94599.72;;;7.83;100.00
36828;BME280;22766;48.042;11.192;2023-06-14T04:19:16;94605.66;;;7.83;100.00
36828;BME280;22766;48.042;11.192;2023-06-14T04:21:43;94605.41;;;7.86;100.00
36828;BME280;22766;48.042;11.192;2023-06-14T04:24:10;94604.00;;;7.92;100.00
36828;BME280;22766;48.042;11.192;2023-06-14T04:26:43;94609.75;;;8.03;100.00
36828;BME280;22766;48.042;11.192;2023-06-14T04:29:16;94604.16;;;8.08;100.00
36828;BME280;22766;48.042;11.192;2023-06-14T04:31:48;94613.41;;;8.18;100.00
36828;BME280;22766;48.042;11.192;2023-06-14T04:34:16;94617.88;;;8.26;100.00
36828;BME280;22766;48.042;11.192;2023-06-14T04:36:50;94618.06;;;8.32;100.00
36828;BME280;22766;48.042;11.192;2023-06-14T04:39:20;94623.94;;;8.42;100.00
36828;BME280;22766;48.042;11.192;2023-06-14T04:41:48;94628.34;;;8.50;100.00
36828;BME280;22766;48.042;11.192;2023-06-14T04:44:19;94627.44;;;8.59;100.00
36828;BME280;22766;48.042;11.192;2023-06-14T04:46:48;94630.59;;;8.71;100.00
36828;BME280;22766;48.042;11.192;2023-06-14T04:49:19;94635.81;;;8.79;100.00
36828;BME280;22766;48.042;11.192;2023-06-14T04:51:46;94628.66;;;8.90;100.00
36828;BME280;22766;48.042;11.192;2023-06-14T04:54:13;94628.63;;;9.08;100.00
36828;BME280;22766;48.042;11.192;2023-06-14T04:56:42;94626.94;;;9.24;100.00
36828;BME280;22766;48.042;11.192;2023-06-14T04:59:10;94631.84;;;9.43;100.00
36828;BME280;22766;48.042;11.192;2023-06-14T05:01:41;94635.13;;;9.62;100.00
36828;BME280;22766;48.042;11.192;2023-06-14T05:04:08;94639.22;;;9.80;100.00
36828;BME280;22766;48.042;11.192;2023-06-14T05:06:35;94643.34;;;9.99;100.00
36828;BME280;22766;48.042;11.192;2023-06-14T05:09:03;94644.06;;;10.17;100.00
36828;BME280;22766;48.042;11.192;2023-06-14T05:11:29;94641.19;;;10.36;100.00
36828;BME280;22766;48.042;11.192;2023-06-14T05:13:56;94652.03;;;10.56;100.00
36828;BME280;22766;48.042;11.192;2023-06-14T05:16:24;94641.22;;;10.76;100.00
36828;BME280;22766;48.042;11.192;2023-06-14T05:18:52;94644.41;;;10.94;100.00
36828;BME280;22766;48.042;11.192;2023-06-14T05:21:18;94635.69;;;11.11;100.00
36828;BME280;22766;48.042;11.192;2023-06-14T05:23:45;94636.13;;;11.39;100.00
36828;BME280;22766;48.042;11.192;2023-06-14T05:26:12;94635.88;;;11.65;100.00
36828;BME280;22766;48.042;11.192;2023-06-14T05:28:39;94642.78;;;11.80;100.00
36828;BME280;22766;48.042;11.192;2023-06-14T05:31:06;94645.97;;;11.98;100.00
36828;BME280;22766;48.042;11.192;2023-06-14T05:33:33;94645.81;;;12.23;100.00
36828;BME280;22766;48.042;11.192;2023-06-14T05:36:00;94644.28;;;12.59;100.00
36828;BME280;22766;48.042;11.192;2023-06-14T05:38:26;94642.81;;;13.01;99.99
36828;BME280;22766;48.042;11.192;2023-06-14T05:40:53;94648.34;;;13.21;100.00
36828;BME280;22766;48.042;11.192;2023-06-14T05:43:20;94639.88;;;13.56;100.00
36828;BME280;22766;48.042;11.192;2023-06-14T05:45:47;94647.09;;;13.75;99.05
36828;BME280;22766;48.042;11.192;2023-06-14T05:48:14;94649.69;;;13.75;100.00
36828;BME280;22766;48.042;11.192;2023-06-14T05:50:41;94637.72;;;14.25;96.74
36828;BME280;22766;48.042;11.192;2023-06-14T05:53:07;94640.31;;;14.25;93.68
36828;BME280;22766;48.042;11.192;2023-06-14T05:55:34;94635.25;;;14.17;93.96
36828;BME280;22766;48.042;11.192;2023-06-14T05:58:02;94644.13;;;14.22;94.12
36828;BME280;22766;48.042;11.192;2023-06-14T06:00:29;94648.66;;;14.35;91.47
36828;BME280;22766;48.042;11.192;2023-06-14T06:02:56;94654.06;;;14.33;93.36
36828;BME280;22766;48.042;11.192;2023-06-14T06:05:24;94652.91;;;14.99;85.46
36828;BME280;22766;48.042;11.192;2023-06-14T06:07:51;94657.94;;;15.28;78.52
36828;BME280;22766;48.042;11.192;2023-06-14T06:10:18;94666.38;;;15.37;83.81
36828;BME280;22766;48.042;11.192;2023-06-14T06:12:44;94668.09;;;15.44;83.90
36828;BME280;22766;48.042;11.192;2023-06-14T06:15:13;94670.53;;;15.25;75.83
36828;BME280;22766;48.042;11.192;2023-06-14T06:17:41;94669.56;;;15.53;72.28
36828;BME280;22766;48.042;11.192;2023-06-14T06:20:23;94667.38;;;15.91;71.19
36828;BME280;22766;48.042;11.192;2023-06-14T06:22:55;94663.56;;;15.87;60.37
36828;BME280;22766;48.042;11.192;2023-06-14T06:25:22;94667.91;;;16.14;62.27
36828;BME280;22766;48.042;11.192;2023-06-14T06:27:49;94672.75;;;16.24;62.91
36828;BME280;22766;48.042;11.192;2023-06-14T06:30:17;94675.00;;;16.40;61.57
36828;BME280;22766;48.042;11.192;2023-06-14T06:32:43;94669.66;;;16.48;56.99
36828;BME280;22766;48.042;11.192;2023-06-14T06:35:10;94673.97;;;16.95;48.84
36828;BME280;22766;48.042;11.192;2023-06-14T06:37:41;94673.78;;;17.29;50.11
36828;BME280;22766;48.042;11.192;2023-06-14T06:40:08;94676.41;;;17.16;52.87
36828;BME280;22766;48.042;11.192;2023-06-14T06:42:36;94672.59;;;17.12;54.81
36828;BME280;22766;48.042;11.192;2023-06-14T06:45:04;94671.38;;;16.88;53.33
36828;BME280;22766;48.042;11.192;2023-06-14T06:47:31;94678.00;;;17.04;49.59
36828;BME280;22766;48.042;11.192;2023-06-14T06:49:58;94678.41;;;17.20;47.21
36828;BME280;22766;48.042;11.192;2023-06-14T06:52:24;94678.63;;;17.78;46.83
36828;BME280;22766;48.042;11.192;2023-06-14T06:54:51;94672.75;;;17.95;45.77
36828;BME280;22766;48.042;11.192;2023-06-14T06:57:21;94684.19;;;18.07;44.71
36828;BME280;22766;48.042;11.192;2023-06-14T06:59:51;94678.59;;;17.91;46.15
36828;BME280;22766;48.042;11.192;2023-06-14T07:02:18;94682.44;;;18.39;45.92
36828;BME280;22766;48.042;11.192;2023-06-14T07:04:45;94681.50;;;18.78;44.05
36828;BME280;22766;48.042;11.192;2023-06-14T07:07:12;94687.69;;;18.90;45.09
36828;BME280;22766;48.042;11.192;2023-06-14T07:09:38;94682.38;;;18.65;43.14
36828;BME280;22766;48.042;11.192;2023-06-14T07:12:05;94682.06;;;18.86;44.49
36828;BME280;22766;48.042;11.192;2023-06-14T07:14:33;94688.06;;;18.49;42.83
36828;BME280;22766;48.042;11.192;2023-06-14T07:17:00;94694.56;;;18.27;43.37
36828;BME280;22766;48.042;11.192;2023-06-14T07:19:26;94698.53;;;18.49;44.81
36828;BME280;22766;48.042;11.192;2023-06-14T07:21:53;94695.13;;;19.17;42.45
36828;BME280;22766;48.042;11.192;2023-06-14T07:24:20;94701.13;;;19.55;41.79
36828;BME280;22766;48.042;11.192;2023-06-14T07:26:47;94703.69;;;19.87;40.43
36828;BME280;22766;48.042;11.192;2023-06-14T07:29:15;94702.69;;;20.06;40.05
36828;BME280;22766;48.042;11.192;2023-06-14T07:31:43;94700.59;;;20.14;38.89
36828;BME280;22766;48.042;11.192;2023-06-14T07:34:10;94706.00;;;20.19;39.69
36828;BME280;22766;48.042;11.192;2023-06-14T07:36:36;94707.59;;;20.57;38.19
36828;BME280;22766;48.042;11.192;2023-06-14T07:39:04;94705.81;;;20.87;39.59
36828;BME280;22766;48.042;11.192;2023-06-14T07:41:33;94712.56;;;20.94;38.96
36828;BME280;22766;48.042;11.192;2023-06-14T07:43:59;94710.53;;;20.96;35.97
36828;BME280;22766;48.042;11.192;2023-06-14T07:46:26;94706.56;;;20.76;37.34
36828;BME280;22766;48.042;11.192;2023-06-14T07:48:53;94703.19;;;20.87;38.99
36828;BME280;22766;48.042;11.192;2023-06-14T07:51:20;94715.44;;;21.22;37.41
36828;BME280;22766;48.042;11.192;2023-06-14T07:53:49;94713.88;;;21.33;34.40
36828;BME280;22766;48.042;11.192;2023-06-14T07:56:16;94707.66;;;21.16;34.45
36828;BME280;22766;48.042;11.192;2023-06-14T07:58:43;94706.97;;;21.73;34.65
36828;BME280;22766;48.042;11.192;2023-06-14T08:01:09;94705.13;;;21.74;32.67
36828;BME280;22766;48.042;11.192;2023-06-14T08:03:37;94702.09;;;21.88;34.36
36828;BME280;22766;48.042;11.192;2023-06-14T08:06:06;94701.63;;;22.14;34.17
36828;BME280;22766;48.042;11.192;2023-06-14T08:08:33;94704.38;;;22.19;34.25
36828;BME280;22766;48.042;11.192;2023-06-14T08:10:59;94708.03;;;22.18;33.43
36828;BME280;22766;48.042;11.192;2023-06-14T08:13:26;94707.56;;;22.33;31.79
36828;BME280;22766;48.042;11.192;2023-06-14T08:15:53;94704.09;;;22.44;34.09
36828;BME280;22766;48.042;11.192;2023-06-14T08:18:20;94709.25;;;22.62;31.39
36828;BME280;22766;48.042;11.192;2023-06-14T08:20:47;94712.38;;;22.87;31.16
36828;BME280;22766;48.042;11.192;2023-06-14T08:23:13;94712.66;;;22.63;32.71
36828;BME280;22766;48.042;11.192;2023-06-14T08:25:40;94713.47;;;22.52;31.94
36828;BME280;22766;48.042;11.192;2023-06-14T08:28:07;94716.38;;;22.90;30.91
36828;BME280;22766;48.042;11.192;2023-06-14T08:30:33;94711.47;;;22.82;30.72
36828;BME280;22766;48.042;11.192;2023-06-14T08:33:00;94720.53;;;22.74;30.31
36828;BME280;22766;48.042;11.192;2023-06-14T08:35:42;94715.94;;;22.18;31.92
36828;BME280;22766;48.042;11.192;2023-06-14T08:38:10;94721.09;;;22.76;30.44
36828;BME280;22766;48.042;11.192;2023-06-14T08:40:39;94723.69;;;23.16;28.86
36828;BME280;22766;48.042;11.192;2023-06-14T08:43:08;94720.13;;;23.22;29.56
36828;BME280;22766;48.042;11.192;2023-06-14T08:45:34;94728.22;;;23.04;30.54
36828;BME280;22766;48.042;11.192;2023-06-14T08:48:01;94722.97;;;23.04;29.43
36828;BME280;22766;48.042;11.192;2023-06-14T08:50:29;94728.56;;;23.07;29.76
36828;BME280;22766;48.042;11.192;2023-06-14T08:53:01;94722.34;;;22.74;30.11
36828;BME280;22766;48.042;11.192;2023-06-14T08:55:30;94723.09;;;22.97;29.73
36828;BME280;22766;48.042;11.192;2023-06-14T08:58:01;94719.72;;;23.13;28.89
36828;BME280;22766;48.042;11.192;2023-06-14T09:00:30;94717.72;;;23.20;29.43
36828;BME280;22766;48.042;11.192;2023-06-14T09:02:57;94726.28;;;23.56;28.89
36828;BME280;22766;48.042;11.192;2023-06-14T09:05:25;94727.09;;;23.73;29.42
36828;BME280;22766;48.042;11.192;2023-06-14T09:07:54;94724.19;;;23.58;28.24
36828;BME280;22766;48.042;11.192;2023-06-14T09:10:31;94724.13;;;23.53;27.59
36828;BME280;22766;48.042;11.192;2023-06-14T09:13:05;94725.16;;;23.52;27.78
36828;BME280;22766;48.042;11.192;2023-06-14T09:15:32;94717.41;;;23.78;27.93
36828;BME280;22766;48.042;11.192;2023-06-14T09:18:03;94729.81;;;23.78;28.70
36828;BME280;22766;48.042;11.192;2023-06-14T09:20:31;94731.91;;;23.19;28.03
36828;BME280;22766;48.042;11.192;2023-06-14T09:22:58;94721.00;;;23.39;28.24
36828;BME280;22766;48.042;11.192;2023-06-14T09:25:25;94732.34;;;23.73;28.58
36828;BME280;22766;48.042;11.192;2023-06-14T09:28:08;94725.19;;;24.01;28.48
36828;BME280;22766;48.042;11.192;2023-06-14T09:30:38;94729.16;;;23.71;27.69
36828;BME280;22766;48.042;11.192;2023-06-14T09:33:05;94730.06;;;23.76;27.15
36828;BME280;22766;48.042;11.192;2023-06-14T09:35:32;94728.31;;;23.82;27.35
36828;BME280;22766;48.042;11.192;2023-06-14T09:37:59;94727.66;;;23.91;28.47
36828;BME280;22766;48.042;11.192;2023-06-14T09:40:27;94728.06;;;23.83;27.07
36828;BME280;22766;48.042;11.192;2023-06-14T09:42:54;94734.22;;;24.05;27.50
36828;BME280;22766;48.042;11.192;2023-06-14T09:45:22;94735.09;;;24.28;28.53
36828;BME280;22766;48.042;11.192;2023-06-14T09:47:49;94735.94;;;24.71;29.17
36828;BME280;22766;48.042;11.192;2023-06-14T09:50:33;94740.69;;;24.91;27.87
36828;BME280;22766;48.042;11.192;2023-06-14T09:53:07;94748.75;;;24.63;27.58
36828;BME280;22766;48.042;11.192;2023-06-14T09:55:37;94738.75;;;24.27;27.42
36828;BME280;22766;48.042;11.192;2023-06-14T09:58:05;94736.09;;;24.65;27.55
36828;BME280;22766;48.042;11.192;2023-06-14T10:00:34;94737.50;;;24.51;25.87
36828;BME280;22766;48.042;11.192;2023-06-14T10:03:16;94733.72;;;24.63;27.25
36828;BME280;22766;48.042;11.192;2023-06-14T10:05:46;94733.28;;;24.50;26.52
36828;BME280;22766;48.042;11.192;2023-06-14T10:08:19;94732.28;;;24.72;27.18
36828;BME280;22766;48.042;11.192;2023-06-14T10:10:47;94729.47;;;25.06;28.24
36828;BME280;22766;48.042;11.192;2023-06-14T10:13:14;94732.91;;;25.28;26.69
36828;BME280;22766;48.042;11.192;2023-06-14T10:16:10;94727.94;;;25.36;25.78
36828;BME280;22766;48.042;11.192;2023-06-14T10:24:06;94738.50;;;25.10;25.86
36828;BME280;22766;48.042;11.192;2023-06-14T10:26:34;94728.28;;;25.40;25.22
36828;BME280;22766;48.042;11.192;2023-06-14T10:29:09;94726.03;;;25.53;26.08
36828;BME280;22766;48.042;11.192;2023-06-14T10:31:41;94725.56;;;25.35;25.48
36828;BME280;22766;48.042;11.192;2023-06-14T10:34:12;94722.13;;;25.34;25.61
36828;BME280;22766;48.042;11.192;2023-06-14T10:37:03;94724.31;;;25.16;24.83
36828;BME280;22766;48.042;11.192;2023-06-14T10:39:31;94718.91;;;24.79;24.71
36828;BME280;22766;48.042;11.192;2023-06-14T10:42:01;94712.84;;;24.62;26.09
36828;BME280;22766;48.042;11.192;2023-06-14T10:47:00;94711.69;;;24.96;27.91
36828;BME280;22766;48.042;11.192;2023-06-14T10:49:50;94709.97;;;25.91;27.86
36828;BME280;22766;48.042;11.192;2023-06-14T10:52:21;94715.97;;;26.14;27.51
36828;BME280;22766;48.042;11.192;2023-06-14T10:55:17;94710.97;;;25.85;26.16
36828;BME280;22766;48.042;11.192;2023-06-14T10:57:46;94709.13;;;25.86;26.32
36828;BME280;22766;48.042;11.192;2023-06-14T11:00:21;94715.56;;;26.37;26.63
36828;BME280;22766;48.042;11.192;2023-06-14T11:03:27;94717.78;;;26.50;24.95
36828;BME280;22766;48.042;11.192;2023-06-14T11:05:59;94714.19;;;25.61;25.32
36828;BME280;22766;48.042;11.192;2023-06-14T11:11:09;94716.81;;;24.04;27.71
36828;BME280;22766;48.042;11.192;2023-06-14T11:13:42;94717.19;;;24.13;26.77
36828;BME280;22766;48.042;11.192;2023-06-14T11:16:14;94721.88;;;24.87;27.05
36828;BME280;22766;48.042;11.192;2023-06-14T11:18:42;94714.28;;;25.39;26.90
36828;BME280;22766;48.042;11.192;2023-06-14T11:21:10;94721.84;;;25.57;27.00
36828;BME280;22766;48.042;11.192;2023-06-14T11:23:37;94708.19;;;24.69;27.49
36828;BME280;22766;48.042;11.192;2023-06-14T11:26:04;94718.56;;;24.16;28.99
36828;BME280;22766;48.042;11.192;2023-06-14T11:28:38;94713.69;;;23.74;28.87
36828;BME280;22766;48.042;11.192;2023-06-14T11:31:05;94706.25;;;23.55;28.77
36828;BME280;22766;48.042;11.192;2023-06-14T11:33:32;94705.41;;;23.09;29.46
36828;BME280;22766;48.042;11.192;2023-06-14T11:36:01;94707.03;;;23.88;28.78
36828;BME280;22766;48.042;11.192;2023-06-14T11:38:28;94716.47;;;24.56;27.42
36828;BME280;22766;48.042;11.192;2023-06-14T11:40:58;94706.66;;;25.74;28.61
36828;BME280;22766;48.042;11.192;2023-06-14T11:43:25;94709.41;;;26.21;29.20
36828;BME280;22766;48.042;11.192;2023-06-14T11:45:53;94704.34;;;25.83;29.26
36828;BME280;22766;48.042;11.192;2023-06-14T11:48:41;94705.22;;;25.93;28.27
36828;BME280;22766;48.042;11.192;2023-06-14T11:51:08;94709.31;;;25.48;27.92
36828;BME280;22766;48.042;11.192;2023-06-14T11:53:35;94706.03;;;25.62;27.04
36828;BME280;22766;48.042;11.192;2023-06-14T11:56:02;94706.63;;;25.69;25.96
36828;BME280;22766;48.042;11.192;2023-06-14T11:58:30;94699.88;;;26.20;28.30
36828;BME280;22766;48.042;11.192;2023-06-14T12:00:57;94696.88;;;27.20;28.00
36828;BME280;22766;48.042;11.192;2023-06-14T12:03:25;94698.03;;;27.64;27.13
36828;BME280;22766;48.042;11.192;2023-06-14T12:06:07;94706.38;;;27.06;25.44
36828;BME280;22766;48.042;11.192;2023-06-14T12:08:36;94695.84;;;26.13;26.08
36828;BME280;22766;48.042;11.192;2023-06-14T12:11:11;94707.56;;;25.05;27.04
36828;BME280;22766;48.042;11.192;2023-06-14T12:13:39;94697.50;;;24.21;27.45
36828;BME280;22766;48.042;11.192;2023-06-14T12:16:12;94703.28;;;24.18;28.57
36828;BME280;22766;48.042;11.192;2023-06-14T12:18:40;94705.81;;;23.96;29.82
36828;BME280;22766;48.042;11.192;2023-06-14T12:21:08;94707.13;;;24.48;29.81
36828;BME280;22766;48.042;11.192;2023-06-14T12:23:43;94698.56;;;25.54;29.34
36828;BME280;22766;48.042;11.192;2023-06-14T12:26:19;94708.94;;;25.98;28.89
36828;BME280;22766;48.042;11.192;2023-06-14T12:28:47;94695.66;;;27.58;29.20
36828;BME280;22766;48.042;11.192;2023-06-14T12:31:16;94703.09;;;29.05;26.70
36828;BME280;22766;48.042;11.192;2023-06-14T12:33:43;94707.72;;;29.82;24.15
36828;BME280;22766;48.042;11.192;2023-06-14T12:36:12;94700.97;;;29.51;21.99
36828;BME280;22766;48.042;11.192;2023-06-14T12:38:39;94701.81;;;29.85;23.01
36828;BME280;22766;48.042;11.192;2023-06-14T12:41:05;94698.81;;;30.25;23.23
36828;BME280;22766;48.042;11.192;2023-06-14T12:43:34;94700.28;;;30.08;22.04
36828;BME280;22766;48.042;11.192;2023-06-14T12:46:00;94699.59;;;30.55;21.79
36828;BME280;22766;48.042;11.192;2023-06-14T12:48:27;94715.03;;;29.08;22.81
36828;BME280;22766;48.042;11.192;2023-06-14T12:50:56;94709.47;;;28.99;24.27
36828;BME280;22766;48.042;11.192;2023-06-14T12:53:23;94713.94;;;30.30;21.92
36828;BME280;22766;48.042;11.192;2023-06-14T12:55:50;94716.66;;;30.25;20.76
36828;BME280;22766;48.042;11.192;2023-06-14T12:58:17;94710.47;;;30.34;21.33
36828;BME280;22766;48.042;11.192;2023-06-14T13:00:46;94717.16;;;31.26;20.16
36828;BME280;22766;48.042;11.192;2023-06-14T13:03:13;94711.97;;;30.69;20.25
36828;BME280;22766;48.042;11.192;2023-06-14T13:05:40;94714.84;;;30.73;21.36
36828;BME280;22766;48.042;11.192;2023-06-14T13:08:08;94715.59;;;31.63;21.36
36828;BME280;22766;48.042;11.192;2023-06-14T13:10:35;94715.25;;;32.34;19.90
36828;BME280;22766;48.042;11.192;2023-06-14T13:13:02;94714.00;;;32.12;19.15